Time;durP1;ratioP1;P1;durP2;ratioP2;P2;SDS_P1;SDS_P2;PMS_P1;PMS_P2;Temp;Humidity;BMP_temperature;BMP_pressure;BME280_temperature;BME280_humidity;BME280_pressure;Samples;Min_cycle;Max_cycle;Signal;HPM_P1;HPM_P2
2021/05/07 00:00:56;;;;;;;6.53;3.25;;;358.40;1612.80;;;;;;5099929;28;20480;-80
2021/05/07 00:03:21;;;;;;;10.90;4.00;;;358.40;1612.80;;;;;;5096828;28;20067;-79
2021/05/07 00:05:55;;;;;;;6.80;4.10;;;358.40;1612.80;;;;;;5094480;28;20063;-80
2021/05/07 00:08:24;;;;;;;7.47;3.80;;;358.40;1612.80;;;;;;5092172;28;20035;-81
2021/05/07 00:10:50;;;;;;;6.63;3.33;;;358.60;1587.20;;;;;;5103524;28;20491;-80
2021/05/07 00:13:15;;;;;;;6.65;3.70;;;358.90;1561.60;;;;;;5091373;28;20028;-80
2021/05/07 00:15:41;;;;;;;7.55;4.03;;;358.70;1561.60;;;;;;5110130;28;20031;-80
2021/05/07 00:18:07;;;;;;;6.55;3.78;;;358.90;1561.60;;;;;;5091292;28;20085;-80
2021/05/07 00:20:33;;;;;;;12.75;3.97;;;358.70;1587.20;;;;;;5108702;28;20027;-80
2021/05/07 00:22:59;;;;;;;7.47;3.75;;;358.60;1612.80;;;;;;5102746;28;20035;-80
2021/05/07 00:25:25;;;;;;;8.38;4.43;;;358.60;1612.80;;;;;;5116196;28;20044;-80
2021/05/07 00:28:01;;;;;;;10.38;4.30;;;358.50;1612.80;;;;;;5094757;28;20028;-80
2021/05/07 00:30:27;;;;;;;;;;;358.50;1612.80;;;;;;5093759;28;20031;-80
2021/05/07 00:32:53;;;;;;;10.37;4.67;;;358.40;1612.80;;;;;;5110171;28;20255;-80
2021/05/07 00:35:19;;;;;;;10.18;3.95;;;333.70;1638.40;;;;;;5113617;28;20017;-80
2021/05/07 00:37:44;;;;;;;12.18;5.60;;;333.70;1638.40;;;;;;5095727;28;20024;-80
2021/05/07 00:40:11;;;;;;;9.27;4.20;;;333.60;1664.00;;;;;;5101273;28;20475;-80
2021/05/07 00:42:36;;;;;;;9.18;4.28;;;333.70;1664.00;;;;;;5113782;28;20119;-80
2021/05/07 00:45:03;;;;;;;9.38;4.88;;;358.40;1638.40;;;;;;5113704;28;20473;-81
2021/05/07 00:47:28;;;;;;;13.75;5.60;;;333.60;1638.40;;;;;;5099512;28;20398;-80
2021/05/07 00:49:55;;;;;;;8.65;4.68;;;333.50;1664.00;;;;;;5113474;28;20039;-80
2021/05/07 00:52:20;;;;;;;9.30;5.43;;;333.50;1664.00;;;;;;5112368;28;20151;-80
2021/05/07 00:54:46;;;;;;;8.25;5.60;;;333.40;1664.00;;;;;;5103047;28;20122;-80
2021/05/07 00:57:12;;;;;;;10.43;5.28;;;333.50;1664.00;;;;;;5107948;28;20019;-80
2021/05/07 00:59:38;;;;;;;13.82;5.35;;;333.40;1689.60;;;;;;5103165;28;20106;-80
2021/05/07 01:02:04;;;;;;;13.77;5.53;;;333.40;1664.00;;;;;;5113879;28;20104;-80
2021/05/07 01:04:30;;;;;;;7.32;5.00;;;333.40;1664.00;;;;;;5112620;28;20495;-80
2021/05/07 01:06:55;;;;;;;8.38;5.28;;;333.50;1664.00;;;;;;5112540;28;20035;-80
2021/05/07 01:09:21;;;;;;;10.10;4.97;;;333.50;1664.00;;;;;;5113643;28;20035;-79
2021/05/07 01:11:47;;;;;;;8.60;4.38;;;333.50;1664.00;;;;;;5102611;28;20027;-80
2021/05/07 01:14:13;;;;;;;12.40;4.95;;;333.60;1638.40;;;;;;5096829;28;20096;-80
2021/05/07 01:16:39;;;;;;;7.57;4.40;;;333.60;1638.40;;;;;;5113408;28;20059;-80
2021/05/07 01:19:05;;;;;;;13.55;5.25;;;333.70;1638.40;;;;;;5113191;28;20432;-80
2021/05/07 01:21:32;;;;;;;10.40;4.78;;;333.70;1638.40;;;;;;5099491;28;20031;-79
2021/05/07 01:23:57;;;;;;;10.63;4.82;;;333.70;1612.80;;;;;;5113523;28;20042;-79
2021/05/07 01:26:23;;;;;;;11.15;5.07;;;358.40;1638.40;;;;;;5112107;28;20035;-80
2021/05/07 01:28:49;;;;;;;8.27;4.60;;;333.70;1638.40;;;;;;5113449;28;20032;-80
2021/05/07 01:31:15;;;;;;;6.97;3.65;;;333.70;1638.40;;;;;;5110367;28;20552;-79
2021/05/07 01:33:40;;;;;;;10.00;4.43;;;358.40;1612.80;;;;;;5101477;28;20031;-80
2021/05/07 01:36:06;;;;;;;8.80;4.75;;;333.70;1638.40;;;;;;5112466;28;20388;-80
2021/05/07 01:38:33;;;;;;;9.55;4.57;;;333.60;1664.00;;;;;;5092222;28;20579;-80
2021/05/07 01:40:59;;;;;;;9.63;4.78;;;333.60;1664.00;;;;;;5105313;28;20039;-80
2021/05/07 01:43:26;;;;;;;11.40;4.85;;;333.50;1689.60;;;;;;5107850;28;20429;-79
2021/05/07 01:45:52;;;;;;;8.93;4.60;;;333.60;1664.00;;;;;;5092616;28;20081;-80
2021/05/07 01:48:18;;;;;;;10.20;4.50;;;333.50;1715.20;;;;;;5093811;28;20020;-80
2021/05/07 01:50:45;;;;;;;8.45;4.60;;;333.40;1715.20;;;;;;5106070;28;20499;-80
2021/05/07 01:53:11;;;;;;;10.63;5.35;;;333.50;1689.60;;;;;;5091117;28;20044;-80
2021/05/07 01:55:42;;;;;;;9.43;4.80;;;333.60;1689.60;;;;;;5095003;28;20024;-79
2021/05/07 01:58:10;;;;;;;13.85;4.53;;;333.60;1689.60;;;;;;5102190;28;20047;-79
2021/05/07 02:00:36;;;;;;;8.73;4.68;;;333.60;1689.60;;;;;;5109699;28;20118;-80
2021/05/07 02:03:06;;;;;;;8.05;5.10;;;333.60;1689.60;;;;;;5102155;28;20039;-80
2021/05/07 02:05:33;;;;;;;8.85;4.70;;;333.60;1689.60;;;;;;5111130;28;20088;-80
2021/05/07 02:08:00;;;;;;;7.25;4.28;;;333.60;1689.60;;;;;;5099451;28;20471;-80
2021/05/07 02:10:28;;;;;;;8.95;4.97;;;333.50;1689.60;;;;;;5112202;28;20044;-80
2021/05/07 02:12:55;;;;;;;9.27;4.82;;;333.50;1715.20;;;;;;5098138;28;20111;-80
2021/05/07 02:15:23;;;;;;;11.10;4.57;;;333.40;1715.20;;;;;;5112900;28;20023;-79
2021/05/07 02:17:50;;;;;;;9.15;5.13;;;333.60;1715.20;;;;;;5107707;28;20024;-82
2021/05/07 02:20:18;;;;;;;9.63;5.13;;;333.60;1740.80;;;;;;5100135;28;20025;-82
2021/05/07 02:22:46;;;;;;;9.05;4.60;;;333.50;1740.80;;;;;;5082284;28;20105;-81
2021/05/07 02:25:13;;;;;;;8.15;4.07;;;333.50;1740.80;;;;;;5082050;28;20578;-80
2021/05/07 02:27:39;;;;;;;9.27;4.55;;;333.50;1715.20;;;;;;5109391;28;20119;-82
2021/05/07 02:30:07;;;;;;;8.55;4.70;;;333.60;1715.20;;;;;;5093066;28;20107;-80
2021/05/07 02:32:33;;;;;;;12.48;4.65;;;333.60;1740.80;;;;;;5105158;28;20070;-82
2021/05/07 02:34:59;;;;;;;11.20;4.70;;;333.50;1740.80;;;;;;5111897;28;20051;-80
2021/05/07 02:37:24;;;;;;;10.75;4.45;;;333.40;1766.40;;;;;;5127548;27;20081;-82
2021/05/07 02:39:50;;;;;;;12.30;5.35;;;333.50;1740.80;;;;;;5110335;28;20028;-82
2021/05/07 02:42:16;;;;;;;11.18;5.15;;;333.50;1740.80;;;;;;5113757;28;20024;-82
2021/05/07 02:44:42;;;;;;;7.75;4.70;;;333.40;1766.40;;;;;;5108676;28;20063;-83
2021/05/07 02:47:07;;;;;;;7.72;4.70;;;333.40;1766.40;;;;;;5111687;28;20059;-83
2021/05/07 02:49:34;;;;;;;11.77;5.85;;;333.40;1766.40;;;;;;5111236;28;20027;-83
2021/05/07 02:52:02;;;;;;;12.15;6.15;;;333.20;1792.00;;;;;;5095925;28;20040;-83
2021/05/07 02:54:28;;;;;;;8.38;5.07;;;333.30;1792.00;;;;;;5082334;28;20379;-81
2021/05/07 02:56:54;;;;;;;8.98;5.28;;;333.30;1792.00;;;;;;5093579;28;20021;-82
2021/05/07 02:59:20;;;;;;;11.73;5.80;;;333.20;1817.60;;;;;;5111287;28;20084;-82
2021/05/07 03:01:46;;;;;;;15.93;6.07;;;333.30;1817.60;;;;;;5112873;28;20035;-83
2021/05/07 03:04:11;;;;;;;10.88;5.45;;;333.20;1817.60;;;;;;5093451;28;20024;-83
2021/05/07 03:06:37;;;;;;;11.63;5.47;;;333.30;1817.60;;;;;;5091400;28;20036;-81
2021/05/07 03:09:03;;;;;;;12.32;5.35;;;333.30;1817.60;;;;;;5109824;28;20164;-82
2021/05/07 03:11:29;;;;;;;12.13;5.85;;;333.20;1843.20;;;;;;5098930;28;20058;-83
2021/05/07 03:13:55;;;;;;;15.50;5.57;;;333.40;1817.60;;;;;;5111398;28;20463;-82
2021/05/07 03:16:22;;;;;;;12.43;5.80;;;333.40;1817.60;;;;;;5113758;27;20035;-82
2021/05/07 03:18:50;;;;;;;12.25;5.80;;;333.50;1817.60;;;;;;5112004;28;20035;-85
2021/05/07 03:21:16;;;;;;;15.68;6.15;;;333.60;1792.00;;;;;;5111159;28;20038;-82
2021/05/07 03:23:42;;;;;;;12.82;5.90;;;333.70;1792.00;;;;;;5101893;28;20020;-82
2021/05/07 03:26:08;;;;;;;13.18;6.25;;;358.50;1766.40;;;;;;5105343;28;20507;-82
2021/05/07 03:28:34;;;;;;;13.77;6.07;;;358.50;1792.00;;;;;;5107540;28;20382;-82
2021/05/07 03:31:00;;;;;;;15.00;6.43;;;333.60;1817.60;;;;;;5110671;28;20035;-81
2021/05/07 03:33:25;;;;;;;13.18;5.72;;;333.40;1868.80;;;;;;5098532;28;20016;-81
2021/05/07 03:35:51;;;;;;;10.88;5.45;;;333.20;1894.40;;;;;;5103638;28;20501;-82
2021/05/07 03:38:17;;;;;;;13.20;6.10;;;333.30;1868.80;;;;;;5091935;28;20032;-81
2021/05/07 03:40:43;;;;;;;12.57;6.05;;;333.30;1868.80;;;;;;5109726;28;20084;-82
2021/05/07 03:43:08;;;;;;;11.88;5.18;;;333.30;1894.40;;;;;;5095315;28;20024;-80
2021/05/07 03:45:34;;;;;;;16.83;6.03;;;333.40;1868.80;;;;;;5109489;28;20040;-81
2021/05/07 03:48:00;;;;;;;13.30;6.05;;;333.50;1868.80;;;;;;5101670;28;20024;-81
2021/05/07 03:50:25;;;;;;;10.63;5.60;;;333.50;1868.80;;;;;;5094122;28;20036;-81
2021/05/07 03:52:51;;;;;;;9.57;5.50;;;333.50;1868.80;;;;;;5110787;28;20113;-81
2021/05/07 03:55:18;;;;;;;11.32;6.18;;;333.50;1894.40;;;;;;5098629;28;20020;-81
2021/05/07 03:57:46;;;;;;;12.55;5.80;;;333.50;1894.40;;;;;;5111706;28;20023;-81
2021/05/07 04:00:12;;;;;;;12.35;5.80;;;333.40;1894.40;;;;;;5111088;28;20042;-81
2021/05/07 04:02:39;;;;;;;14.38;6.72;;;333.50;1894.40;;;;;;5105299;28;20027;-81
2021/05/07 04:05:05;;;;;;;11.25;5.82;;;333.50;1894.40;;;;;;5089948;28;20119;-81
2021/05/07 04:07:31;;;;;;;12.32;5.47;;;333.60;1894.40;;;;;;5109912;28;20111;-81
2021/05/07 04:10:05;;;;;;;12.13;5.78;;;333.50;1920.00;;;;;;5111856;28;20483;-81
2021/05/07 04:15:03;;;;;;;12.65;6.15;;;333.50;1920.00;;;;;;5100531;28;20232;-82
2021/05/07 04:17:29;;;;;;;15.55;6.70;;;333.40;1920.00;;;;;;5100068;28;20028;-81
2021/05/07 04:19:54;;;;;;;10.85;5.97;;;333.50;1945.60;;;;;;5100682;28;20089;-81
2021/05/07 04:22:20;;;;;;;8.75;5.72;;;333.60;1920.00;;;;;;5114501;28;20062;-81
2021/05/07 04:24:46;;;;;;;13.30;6.13;;;358.40;1894.40;;;;;;5113395;28;20031;-81
2021/05/07 04:27:11;;;;;;;13.38;6.68;;;358.40;1894.40;;;;;;5103742;28;20028;-81
2021/05/07 04:29:37;;;;;;;13.70;6.53;;;358.40;1894.40;;;;;;5112689;28;20073;-80
2021/05/07 04:32:03;;;;;;;14.80;5.65;;;358.50;1868.80;;;;;;5114326;28;20035;-81
2021/05/07 04:34:29;;;;;;;10.35;5.90;;;358.50;1868.80;;;;;;5115643;28;20038;-81
2021/05/07 04:36:55;;;;;;;13.20;5.78;;;358.60;1894.40;;;;;;5114215;28;20031;-81
2021/05/07 04:39:21;;;;;;;27.27;7.63;;;358.60;1868.80;;;;;;5114228;28;20032;-81
2021/05/07 04:41:46;;;;;;;10.93;6.25;;;358.70;1894.40;;;;;;5095913;28;20020;-81
2021/05/07 04:44:12;;;;;;;17.08;6.25;;;358.80;1868.80;;;;;;5105195;28;20475;-81
2021/05/07 04:46:38;;;;;;;15.13;6.05;;;358.70;1868.80;;;;;;5107774;28;20047;-81
2021/05/07 04:49:04;;;;;;;14.60;6.63;;;358.70;1894.40;;;;;;5101849;28;20028;-81
2021/05/07 04:51:29;;;;;;;11.88;6.07;;;358.70;1920.00;;;;;;5093516;28;20047;-81
2021/05/07 04:53:56;;;;;;;17.88;6.38;;;358.70;1920.00;;;;;;5101510;28;20036;-81
2021/05/07 04:56:22;;;;;;;14.70;5.75;;;358.70;1920.00;;;;;;5110972;28;20071;-82
2021/05/07 04:58:49;;;;;;;13.45;5.85;;;358.90;1894.40;;;;;;5111277;28;20086;-81
2021/05/07 05:01:14;;;;;;;13.00;5.93;;;358.90;1920.00;;;;;;5105919;27;20024;-79
2021/05/07 05:03:40;;;;;;;11.63;6.38;;;359.00;1894.40;;;;;;5096216;28;20032;-80
2021/05/07 05:06:06;;;;;;;12.68;6.43;;;359.00;1894.40;;;;;;5110068;28;20031;-80
2021/05/07 05:08:31;;;;;;;10.88;5.90;;;359.10;1868.80;;;;;;5101273;28;20476;-79
2021/05/07 05:10:58;;;;;;;12.82;6.70;;;359.20;1868.80;;;;;;5106719;28;20032;-79
2021/05/07 05:13:25;;;;;;;17.20;6.65;;;359.20;1868.80;;;;;;5101809;28;20127;-80
2021/05/07 05:15:55;;;;;;;15.05;5.80;;;384.00;1843.20;;;;;;5095806;28;20027;-80
2021/05/07 05:18:35;;;;;;;10.40;4.82;;;384.00;1868.80;;;;;;5104142;28;20028;-79
2021/05/07 05:21:03;;;;;;;12.57;6.25;;;384.10;1868.80;;;;;;5109829;28;20030;-80
2021/05/07 05:23:30;;;;;;;11.20;6.03;;;384.10;1868.80;;;;;;5095883;28;20050;-80
2021/05/07 05:25:56;;;;;;;10.40;6.03;;;384.10;1843.20;;;;;;5103877;28;20069;-79
2021/05/07 05:28:23;;;;;;;13.50;5.82;;;384.20;1843.20;;;;;;5097824;28;20056;-78
2021/05/07 05:30:49;;;;;;;14.07;6.32;;;384.40;1817.60;;;;;;5094681;28;20020;-82
2021/05/07 05:33:15;;;;;;;11.23;5.20;;;384.40;1817.60;;;;;;5102963;28;20028;-81
2021/05/07 05:35:43;;;;;;;11.20;5.43;;;384.30;1843.20;;;;;;5105721;28;20031;-82
2021/05/07 05:38:09;;;;;;;12.60;5.45;;;384.50;1843.20;;;;;;5104209;28;20008;-85
2021/05/07 05:40:35;;;;;;;10.48;5.40;;;384.60;1817.60;;;;;;5103860;28;20031;-80
2021/05/07 05:43:03;;;;;;;9.23;5.15;;;384.50;1817.60;;;;;;5105676;28;20483;-80
2021/05/07 05:45:29;;;;;;;11.52;5.20;;;384.60;1817.60;;;;;;5106124;28;20495;-84
2021/05/07 05:48:15;;;;;;;14.57;5.55;;;384.40;1843.20;;;;;;5109594;28;20024;-84
2021/05/07 05:50:43;;;;;;;18.20;5.87;;;384.60;1792.00;;;;;;5093628;28;20032;-81
2021/05/07 05:53:10;;;;;;;12.18;5.60;;;384.70;1817.60;;;;;;5105561;28;20051;-80
2021/05/07 05:55:39;;;;;;;10.20;5.18;;;384.70;1817.60;;;;;;5103070;28;20119;-80
2021/05/07 05:58:05;;;;;;;10.80;5.65;;;384.80;1792.00;;;;;;5103672;28;20027;-83
2021/05/07 06:00:31;;;;;;;15.25;5.22;;;384.90;1817.60;;;;;;5100578;28;20395;-81
2021/05/07 06:02:57;;;;;;;9.13;5.43;;;384.80;1817.60;;;;;;5110851;28;20019;-85
2021/05/07 06:05:23;;;;;;;11.80;5.70;;;384.80;1817.60;;;;;;5107568;28;20032;-82
2021/05/07 06:07:49;;;;;;;10.32;5.80;;;384.80;1817.60;;;;;;5112299;28;20040;-80
2021/05/07 06:10:16;;;;;;;12.02;5.68;;;384.80;1817.60;;;;;;5112716;28;20076;-82
2021/05/07 06:12:44;;;;;;;13.45;6.05;;;384.90;1817.60;;;;;;5106508;28;20023;-84
2021/05/07 06:15:10;;;;;;;20.65;10.55;;;384.90;1817.60;;;;;;5095132;28;20032;-83
2021/05/07 06:17:36;;;;;;;13.68;6.20;;;384.90;1792.00;;;;;;5110993;27;20034;-77
2021/05/07 06:20:04;;;;;;;11.45;6.55;;;409.60;1817.60;;;;;;5106579;28;20035;-79
2021/05/07 06:22:34;;;;;;;14.73;6.35;;;409.70;1792.00;;;;;;5101902;28;20104;-79
2021/05/07 06:25:00;;;;;;;11.57;6.57;;;409.60;1843.20;;;;;;5097079;28;20075;-80
2021/05/07 06:27:26;;;;;;;10.60;6.22;;;409.70;1792.00;;;;;;5099795;28;20016;-80
2021/05/07 06:29:52;;;;;;;11.13;6.68;;;409.80;1792.00;;;;;;5110816;28;20540;-81
2021/05/07 06:32:18;;;;;;;11.13;5.43;;;409.90;1792.00;;;;;;5101577;28;20491;-81
2021/05/07 06:34:43;;;;;;;9.23;5.65;;;409.90;1792.00;;;;;;5100931;28;20087;-81
2021/05/07 06:37:09;;;;;;;8.93;4.82;;;409.90;1817.60;;;;;;5105106;28;20033;-83
2021/05/07 06:39:36;;;;;;;12.85;5.40;;;409.90;1792.00;;;;;;5106713;28;20142;-80
2021/05/07 06:42:02;;;;;;;10.90;5.60;;;409.90;1817.60;;;;;;5098781;28;20043;-81
2021/05/07 06:44:28;;;;;;;17.15;5.38;;;409.90;1817.60;;;;;;5112759;28;20027;-81
2021/05/07 06:46:55;;;;;;;11.40;5.88;;;410.00;1817.60;;;;;;5097418;28;20036;-81
2021/05/07 06:49:22;;;;;;;10.88;5.90;;;410.00;1792.00;;;;;;5112906;28;20055;-81
2021/05/07 06:51:48;;;;;;;13.77;6.00;;;410.10;1817.60;;;;;;5112727;28;20059;-81
2021/05/07 06:54:14;;;;;;;13.80;6.22;;;410.20;1792.00;;;;;;5105282;28;20028;-81
2021/05/07 06:56:40;;;;;;;11.05;6.80;;;410.20;1817.60;;;;;;5110252;28;20046;-81
2021/05/07 06:59:07;;;;;;;19.30;6.68;;;410.20;1792.00;;;;;;5111010;28;20024;-81
2021/05/07 07:01:34;;;;;;;13.50;6.80;;;410.40;1766.40;;;;;;5100760;28;20043;-81
2021/05/07 07:04:00;;;;;;;12.88;6.43;;;410.30;1740.80;;;;;;5105008;28;20020;-82
2021/05/07 07:06:26;;;;;;;13.48;6.07;;;410.40;1766.40;;;;;;5100786;28;20039;-82
2021/05/07 07:08:51;;;;;;;9.50;5.30;;;410.40;1792.00;;;;;;5110701;28;20024;-82
2021/05/07 07:11:17;;;;;;;9.52;5.38;;;410.50;1766.40;;;;;;5110187;28;20497;-82
2021/05/07 07:13:43;;;;;;;11.00;5.40;;;410.50;1766.40;;;;;;5111006;28;20074;-82
2021/05/07 07:16:09;;;;;;;10.27;5.47;;;435.20;1740.80;;;;;;5108117;28;20027;-82
2021/05/07 07:18:35;;;;;;;24.10;5.60;;;435.30;1766.40;;;;;;5106399;28;20050;-79
2021/05/07 07:21:01;;;;;;;9.60;4.50;;;435.40;1715.20;;;;;;5099242;28;20028;-80
2021/05/07 07:23:27;;;;;;;9.45;5.18;;;435.50;1715.20;;;;;;5111545;28;20062;-83
2021/05/07 07:25:53;;;;;;;12.43;5.15;;;435.60;1715.20;;;;;;5110972;28;20040;-80
2021/05/07 07:28:19;;;;;;;12.52;5.18;;;435.70;1740.80;;;;;;5119523;27;20031;-81
2021/05/07 07:30:47;;;;;;;9.98;4.53;;;435.70;1689.60;;;;;;5097211;28;20016;-81
2021/05/07 07:33:13;;;;;;;15.40;5.30;;;435.90;1715.20;;;;;;5102966;28;20081;-80
2021/05/07 07:35:39;;;;;;;10.50;4.93;;;436.10;1689.60;;;;;;5109612;28;20402;-80
2021/05/07 07:38:05;;;;;;;10.23;5.10;;;436.10;1715.20;;;;;;5102200;28;20098;-81
2021/05/07 07:40:31;;;;;;;11.27;5.82;;;460.80;1740.80;;;;;;5106579;28;20073;-81
2021/05/07 07:42:57;;;;;;;7.30;4.80;;;460.90;1715.20;;;;;;5104909;28;20069;-82
2021/05/07 07:45:22;;;;;;;11.60;6.05;;;461.00;1715.20;;;;;;5108013;28;20165;-79
2021/05/07 07:47:48;;;;;;;13.07;5.38;;;461.10;1715.20;;;;;;5108981;28;20520;-80
2021/05/07 07:50:14;;;;;;;12.90;5.68;;;461.30;1715.20;;;;;;5107591;28;20084;-78
2021/05/07 07:52:40;;;;;;;11.43;6.03;;;461.50;1664.00;;;;;;5112040;28;20372;-83
2021/05/07 07:55:08;;;;;;;9.70;5.40;;;461.60;1689.60;;;;;;5113889;28;20018;-80
2021/05/07 07:57:33;;;;;;;9.20;4.93;;;461.60;1689.60;;;;;;5115432;28;20106;-79
2021/05/07 07:59:59;;;;;;;12.02;5.72;;;461.70;1689.60;;;;;;5109982;28;20095;-84
2021/05/07 08:02:26;;;;;;;35.25;15.55;;;486.50;1715.20;;;;;;5112272;28;20510;-82
2021/05/07 08:04:52;;;;;;;32.53;10.15;;;;;;;;;;5103996;28;20032;-79
2021/05/07 08:07:18;;;;;;;9.77;5.13;;;;;;;;;;5114411;28;20463;-79
2021/05/07 08:09:44;;;;;;;9.20;4.30;;;487.00;1612.80;;;;;;5097832;28;20035;-78
2021/05/07 08:12:10;;;;;;;10.93;4.00;;;487.10;1587.20;;;;;;5104403;28;20493;-80
2021/05/07 08:14:36;;;;;;;6.88;3.80;;;487.10;1561.60;;;;;;5114411;28;20032;-77
2021/05/07 08:17:02;;;;;;;13.68;3.85;;;487.30;1536.00;;;;;;5100597;28;20103;-78
2021/05/07 08:19:28;;;;;;;7.00;3.28;;;487.30;1536.00;;;;;;5101822;28;20475;-79
2021/05/07 08:21:54;;;;;;;9.05;3.47;;;512.00;1459.20;;;;;;5099016;28;20048;-78
2021/05/07 08:24:21;;;;;;;4.65;2.55;;;512.00;1433.60;;;;;;5099764;28;20028;-79
2021/05/07 08:26:47;;;;;;;7.68;3.15;;;512.10;1408.00;;;;;;5104154;28;20434;-79
2021/05/07 08:29:13;;;;;;;8.00;3.08;;;512.10;1408.00;;;;;;5109158;28;20471;-79
2021/05/07 08:31:39;;;;;;;7.85;2.55;;;512.20;1408.00;;;;;;5100794;28;20016;-78
2021/05/07 08:34:05;;;;;;;8.23;2.80;;;512.20;1408.00;;;;;;5101250;28;20015;-79
2021/05/07 08:36:31;;;;;;;11.55;2.65;;;512.20;1433.60;;;;;;5114216;28;20529;-79
2021/05/07 08:38:57;;;;;;;8.23;2.65;;;512.30;1382.40;;;;;;5102060;28;20023;-80
2021/05/07 08:41:23;;;;;;;7.63;2.70;;;512.40;1382.40;;;;;;5109776;28;20127;-83
2021/05/07 08:43:52;;;;;;;6.90;2.97;;;512.50;1382.40;;;;;;5098595;28;20016;-78
2021/05/07 08:46:18;;;;;;;6.55;2.95;;;;;;;;;;5088005;28;20058;-80
2021/05/07 08:48:45;;;;;;;11.75;2.70;;;512.70;1356.80;;;;;;5109084;28;20024;-82
2021/05/07 08:51:12;;;;;;;5.45;2.70;;;512.80;1356.80;;;;;;5112859;28;20027;-82
2021/05/07 08:53:38;;;;;;;5.68;2.30;;;537.60;1382.40;;;;;;5102907;28;20030;-82
2021/05/07 08:56:08;;;;;;;9.82;2.60;;;537.60;1356.80;;;;;;5110999;28;20383;-83
2021/05/07 08:58:34;;;;;;;7.78;2.67;;;537.70;1356.80;;;;;;5102664;28;20189;-81
2021/05/07 09:01:01;;;;;;;10.98;2.53;;;537.90;1356.80;;;;;;5112035;27;20011;-82
2021/05/07 09:03:42;;;;;;;11.45;3.60;;;537.90;1280.00;;;;;;5110817;28;20111;-80
2021/05/07 09:06:19;;;;;;;10.95;3.30;;;537.90;1280.00;;;;;;5107854;28;20030;-80
2021/05/07 09:08:49;;;;;;;5.38;2.55;;;538.00;1305.60;;;;;;5113338;28;20031;-79
2021/05/07 09:11:17;;;;;;;7.38;2.50;;;538.00;1280.00;;;;;;5101716;28;20047;-80
2021/05/07 09:13:42;;;;;;;9.85;2.53;;;538.00;1280.00;;;;;;5111952;28;20039;-80
2021/05/07 09:16:10;;;;;;;9.05;2.45;;;538.10;1305.60;;;;;;5098318;28;20040;-81
2021/05/07 09:18:47;;;;;;;8.52;2.65;;;538.20;1280.00;;;;;;5101283;28;20092;-79
2021/05/07 09:21:17;;;;;;;6.15;2.15;;;538.10;1254.40;;;;;;5103892;28;20043;-78
2021/05/07 09:23:48;;;;;;;7.90;2.75;;;538.10;1254.40;;;;;;5108482;28;20051;-80
2021/05/07 09:26:14;;;;;;;8.52;2.50;;;538.10;1254.40;;;;;;5111085;28;20413;-81
2021/05/07 09:28:55;;;;;;;10.13;2.25;;;538.20;1254.40;;;;;;5095824;28;20027;-81
2021/05/07 09:31:21;;;;;;;8.48;2.47;;;538.30;1254.40;;;;;;5110078;28;20501;-81
2021/05/07 09:33:49;;;;;;;8.00;2.50;;;538.30;1280.00;;;;;;5109939;28;20028;-79
2021/05/07 09:36:26;;;;;;;8.65;2.67;;;538.40;1254.40;;;;;;5102865;28;20026;-82
2021/05/07 09:38:52;;;;;;;4.57;2.38;;;538.40;1254.40;;;;;;5105736;28;20374;-79
2021/05/07 09:41:19;;;;;;;5.75;1.85;;;538.20;1228.80;;;;;;5124735;27;20111;-79
2021/05/07 09:43:45;;;;;;;8.32;2.72;;;538.30;1228.80;;;;;;5112372;28;20036;-78
2021/05/07 09:46:11;;;;;;;9.90;2.60;;;538.20;1254.40;;;;;;5112285;28;20039;-79
2021/05/07 09:48:44;;;;;;;4.43;2.63;;;538.20;1228.80;;;;;;5110751;28;20482;-79
2021/05/07 09:51:12;;;;;;;8.30;3.00;;;538.30;1280.00;;;;;;5077809;28;20044;-80
2021/05/07 09:53:40;;;;;;;9.10;3.50;;;538.30;1203.20;;;;;;5108540;28;20479;-80
2021/05/07 09:56:11;;;;;;;5.72;2.63;;;538.40;1177.60;;;;;;5110089;28;20134;-79
2021/05/07 09:58:37;;;;;;;14.73;2.95;;;538.50;1203.20;;;;;;5091950;28;20032;-81
2021/05/07 10:01:03;;;;;;;4.63;2.30;;;538.50;1228.80;;;;;;5099943;28;20012;-79
2021/05/07 10:03:29;;;;;;;7.43;2.75;;;563.30;1254.40;;;;;;5111324;28;20038;-79
2021/05/07 10:05:55;;;;;;;5.97;2.70;;;563.50;1254.40;;;;;;5077663;28;20040;-77
2021/05/07 10:08:20;;;;;;;4.22;2.50;;;563.50;1228.80;;;;;;5103164;28;20020;-77
2021/05/07 10:10:48;;;;;;;6.75;2.58;;;563.60;1228.80;;;;;;5107201;28;20047;-78
2021/05/07 10:13:17;;;;;;;6.32;2.83;;;563.60;1203.20;;;;;;5091690;28;20023;-79
2021/05/07 10:15:43;;;;;;;4.22;2.40;;;563.80;1203.20;;;;;;5103207;28;20024;-82
2021/05/07 10:18:11;;;;;;;6.05;2.70;;;564.00;1203.20;;;;;;5112274;28;20098;-78
2021/05/07 10:20:41;;;;;;;10.18;3.80;;;564.10;1203.20;;;;;;5093054;28;20059;-80
2021/05/07 10:23:18;;;;;;;6.32;2.42;;;588.80;1126.40;;;;;;5108892;28;20076;-79
2021/05/07 10:26:08;;;;;;;3.80;2.15;;;588.80;1075.20;;;;;;5093472;28;20045;-82
2021/05/07 10:28:48;;;;;;;13.25;4.05;;;589.10;1049.60;;;;;;5101815;28;20016;-78
2021/05/07 10:31:15;;;;;;;6.38;2.40;;;614.40;1049.60;;;;;;5089530;28;20031;-79
2021/05/07 10:33:59;;;;;;;7.63;2.65;;;615.00;1049.60;;;;;;5086664;28;20062;-79
2021/05/07 10:36:37;;;;;;;8.07;3.03;;;615.10;947.20;;;;;;5089697;28;20012;-79
2021/05/07 10:39:03;;;;;;;10.90;2.95;;;615.20;972.80;;;;;;5097027;28;20024;-79
2021/05/07 10:41:35;;;;;;;6.72;3.00;;;614.90;972.80;;;;;;5108057;28;20475;-78
2021/05/07 10:44:01;;;;;;;7.65;3.30;;;614.80;998.40;;;;;;5100774;28;20036;-78
2021/05/07 10:46:29;;;;;;;5.45;2.80;;;615.00;1024.00;;;;;;5094652;28;20042;-80
2021/05/07 10:48:56;;;;;;;4.63;2.47;;;615.10;1024.00;;;;;;5092121;28;20089;-79
2021/05/07 10:51:25;;;;;;;5.53;2.67;;;614.80;998.40;;;;;;5093274;28;20051;-79
2021/05/07 10:53:51;;;;;;;6.10;2.10;;;614.60;998.40;;;;;;5106634;28;20429;-79
2021/05/07 10:56:25;;;;;;;8.25;2.30;;;614.40;1024.00;;;;;;5098779;28;20019;-78
2021/05/07 10:58:52;;;;;;;8.27;2.92;;;589.50;1024.00;;;;;;5082775;28;20497;-78
2021/05/07 11:01:19;;;;;;;7.13;2.08;;;589.20;1024.00;;;;;;5092612;28;20020;-79
2021/05/07 11:03:45;;;;;;;6.63;2.00;;;589.10;1049.60;;;;;;5107104;28;20034;-79
2021/05/07 11:06:13;;;;;;;8.45;4.13;;;588.90;1100.80;;;;;;5085603;28;20126;-78
2021/05/07 11:08:40;;;;;;;10.80;3.78;;;564.10;1177.60;;;;;;5076763;28;20846;-78
2021/05/07 11:11:06;;;;;;;20.08;4.47;;;563.80;1305.60;;;;;;5100717;28;20064;-78
2021/05/07 11:13:31;;;;;;;13.68;3.88;;;563.50;1356.80;;;;;;5079289;28;20028;-78
2021/05/07 11:15:59;;;;;;;12.20;3.88;;;563.20;1408.00;;;;;;5102953;28;20086;-78
2021/05/07 11:18:32;;;;;;;10.55;4.82;;;538.50;1433.60;;;;;;5110596;28;20467;-79
2021/05/07 11:21:10;;;;;;;13.63;4.25;;;538.10;1459.20;;;;;;5082446;28;20028;-77
2021/05/07 11:23:36;;;;;;;11.50;4.40;;;537.90;1459.20;;;;;;5104754;28;20032;-78
2021/05/07 11:26:06;;;;;;;13.88;4.63;;;537.60;1484.80;;;;;;5076116;28;20479;-77
2021/05/07 11:28:43;;;;;;;13.25;4.60;;;512.90;1484.80;;;;;;5111735;28;20108;-78
2021/05/07 11:31:09;;;;;;;17.27;6.55;;;512.70;1484.80;;;;;;5108022;28;20455;-78
2021/05/07 11:33:36;;;;;;;11.38;5.18;;;512.70;1510.40;;;;;;5076907;28;20115;-78
2021/05/07 11:36:06;;;;;;;12.40;4.95;;;512.60;1536.00;;;;;;5081890;28;20166;-79
2021/05/07 11:38:33;;;;;;;9.25;4.32;;;512.70;1536.00;;;;;;5082229;28;20032;-78
2021/05/07 11:40:59;;;;;;;15.20;4.80;;;512.70;1536.00;;;;;;5091180;28;20108;-78
2021/05/07 11:43:30;;;;;;;7.22;4.07;;;512.70;1536.00;;;;;;5076126;28;20467;-79
2021/05/07 11:46:05;;;;;;;8.35;4.25;;;512.80;1536.00;;;;;;5074771;28;20036;-78
2021/05/07 11:48:34;;;;;;;9.55;4.28;;;537.80;1510.40;;;;;;5106636;28;20471;-78
2021/05/07 11:51:04;;;;;;;11.05;4.30;;;538.30;1484.80;;;;;;5096901;28;20383;-78
2021/05/07 11:53:30;;;;;;;6.60;3.45;;;563.40;1459.20;;;;;;5111664;28;20357;-78
2021/05/07 11:55:56;;;;;;;10.60;4.22;;;563.60;1433.60;;;;;;5110565;28;20484;-78
2021/05/07 11:58:33;;;;;;;9.23;4.45;;;563.80;1408.00;;;;;;5102236;28;20058;-77
2021/05/07 12:00:59;;;;;;;11.25;4.55;;;564.00;1382.40;;;;;;5104400;28;20519;-78
2021/05/07 12:03:42;;;;;;;11.48;3.95;;;589.00;1408.00;;;;;;5091594;28;20047;-78
2021/05/07 12:06:25;;;;;;;12.90;4.22;;;589.40;1356.80;;;;;;5104494;28;20074;-78
2021/05/07 12:08:52;;;;;;;11.48;3.75;;;589.70;1331.20;;;;;;5090049;28;20036;-78
2021/05/07 12:11:19;;;;;;;10.45;4.07;;;589.70;1305.60;;;;;;5082916;28;20122;-80
2021/05/07 12:13:46;;;;;;;12.10;4.18;;;614.40;1305.60;;;;;;5092439;28;20032;-79
2021/05/07 12:16:13;;;;;;;10.25;3.72;;;589.40;1331.20;;;;;;5090996;28;20062;-78